Time;durP1;ratioP1;P1;durP2;ratioP2;P2;SDS_P1;SDS_P2;PMS_P1;PMS_P2;Temp;Humidity;BMP_temperature;BMP_pressure;BME280_temperature;BME280_humidity;BME280_pressure;Samples;Min_cycle;Max_cycle;Signal;HPM_P1;HPM_P2
2023/08/07 04:02:49;;;;;;;1.63;1.57;;;14.90;97.30;;;;;;4940645;29;20491;-90
2023/08/07 04:05:15;;;;;;;1.10;1.00;;;14.90;97.30;;;;;;4943512;28;20435;-87
2023/08/07 04:07:40;;;;;;;1.43;1.33;;;14.90;97.30;;;;;;4943673;29;20268;-89
2023/08/07 04:10:06;;;;;;;1.10;1.00;;;14.90;97.30;;;;;;4942571;29;20634;-87
2023/08/07 04:12:32;;;;;;;1.10;1.00;;;14.90;97.30;;;;;;4926921;29;20738;-89
2023/08/07 04:14:58;;;;;;;1.00;0.90;;;14.90;97.30;;;;;;4926436;29;20436;-89
2023/08/07 04:17:23;;;;;;;1.83;1.73;;;14.90;97.30;;;;;;4924236;29;20642;-88
2023/08/07 04:19:49;;;;;;;1.10;1.00;;;14.90;97.30;;;;;;4926844;29;20188;-88
2023/08/07 04:22:14;;;;;;;1.00;0.90;;;14.90;97.30;;;;;;4919167;29;20749;-87
2023/08/07 04:24:40;;;;;;;2.73;1.20;;;14.90;97.30;;;;;;4913168;29;20252;-88
2023/08/07 04:27:06;;;;;;;1.13;1.03;;;14.90;97.30;;;;;;4920510;29;20587;-88
2023/08/07 04:29:31;;;;;;;1.30;1.20;;;14.90;97.30;;;;;;4924096;29;20184;-88
2023/08/07 04:31:57;;;;;;;1.97;1.33;;;14.90;97.30;;;;;;4918044;29;20207;-89
2023/08/07 04:34:22;;;;;;;1.73;1.43;;;14.90;97.30;;;;;;4918940;29;20251;-87
2023/08/07 04:36:53;;;;;;;1.20;1.10;;;14.90;97.30;;;;;;4918543;29;20230;-88
2023/08/07 04:39:20;;;;;;;4.77;2.13;;;14.90;97.30;;;;;;4920636;29;20670;-88
2023/08/07 04:41:47;;;;;;;1.30;1.20;;;14.90;97.30;;;;;;4918190;29;20436;-88
2023/08/07 04:44:12;;;;;;;1.10;1.00;;;14.90;97.30;;;;;;4917585;29;20428;-88
2023/08/07 04:46:38;;;;;;;1.40;1.30;;;14.90;97.30;;;;;;4916042;29;20853;-88
2023/08/07 04:49:03;;;;;;;1.10;1.00;;;14.90;97.30;;;;;;4915744;29;20343;-88
2023/08/07 04:51:31;;;;;;;1.63;1.53;;;14.90;97.30;;;;;;4916110;29;20200;-88
2023/08/07 04:53:56;;;;;;;3.53;1.77;;;14.90;97.30;;;;;;4917265;29;20268;-88
2023/08/07 04:56:25;;;;;;;1.13;1.03;;;14.90;97.30;;;;;;4920207;29;20568;-88
2023/08/07 04:58:51;;;;;;;1.33;1.10;;;14.90;97.30;;;;;;4915410;29;20184;-85
2023/08/07 05:01:16;;;;;;;1.43;1.33;;;14.90;97.30;;;;;;4916830;29;21001;-88
2023/08/07 05:03:42;;;;;;;1.37;1.27;;;14.80;97.30;;;;;;4920680;29;20172;-87
2023/08/07 05:06:08;;;;;;;1.13;1.13;;;14.80;97.30;;;;;;4916809;29;20201;-87
2023/08/07 05:08:33;;;;;;;1.00;0.90;;;14.90;97.30;;;;;;4919319;29;20207;-88
2023/08/07 05:10:59;;;;;;;1.10;1.00;;;14.90;97.30;;;;;;4917981;29;21320;-90
2023/08/07 05:13:24;;;;;;;1.10;1.00;;;14.90;97.30;;;;;;4923290;29;20204;-87
2023/08/07 05:15:50;;;;;;;1.40;1.30;;;14.90;97.30;;;;;;4922308;29;20193;-88
2023/08/07 05:18:25;;;;;;;1.93;1.17;;;14.90;97.30;;;;;;4916531;29;20319;-88
2023/08/07 05:21:03;;;;;;;1.20;1.10;;;14.90;97.30;;;;;;4918049;29;20822;-88
2023/08/07 05:26:55;;;;;;;1.20;1.10;;;14.90;97.30;;;;;;4905750;29;20413;-87
2023/08/07 05:29:24;;;;;;;0.90;0.80;;;15.00;97.30;;;;;;4916739;29;20811;-85
2023/08/07 05:32:33;;;;;;;1.00;0.90;;;15.00;97.30;;;;;;4922460;29;20291;-87
2023/08/07 05:34:59;;;;;;;1.10;1.00;;;15.00;97.30;;;;;;4909284;29;20468;-86
2023/08/07 05:37:26;;;;;;;1.63;1.53;;;15.00;97.30;;;;;;4917221;29;20464;-87
2023/08/07 05:39:52;;;;;;;1.10;1.10;;;15.00;97.30;;;;;;4917270;29;20212;-88
2023/08/07 05:42:17;;;;;;;1.00;0.90;;;15.00;97.30;;;;;;4920995;29;20484;-86
2023/08/07 05:44:43;;;;;;;1.00;0.90;;;15.00;97.30;;;;;;4917822;29;20604;-87
2023/08/07 05:47:08;;;;;;;1.80;1.70;;;15.00;97.30;;;;;;4918222;29;20193;-87
2023/08/07 05:49:34;;;;;;;1.20;1.10;;;15.00;97.30;;;;;;4918227;29;20458;-88
2023/08/07 05:51:59;;;;;;;16.73;1.83;;;15.00;97.30;;;;;;4917568;29;20201;-88
2023/08/07 05:54:25;;;;;;;1.20;1.10;;;15.00;97.30;;;;;;4919256;29;20181;-87
2023/08/07 05:56:50;;;;;;;1.10;0.90;;;15.00;97.30;;;;;;4918676;29;20574;-87
2023/08/07 05:59:16;;;;;;;1.00;0.90;;;15.10;97.30;;;;;;4915747;29;20677;-88
2023/08/07 06:01:44;;;;;;;1.57;1.47;;;15.10;97.30;;;;;;4916446;29;20220;-87
2023/08/07 06:04:10;;;;;;;3.23;1.20;;;15.20;97.30;;;;;;4916193;29;20192;-88
2023/08/07 06:06:35;;;;;;;1.20;1.10;;;15.10;97.30;;;;;;4918061;29;20429;-86
2023/08/07 06:09:03;;;;;;;1.20;1.10;;;15.10;97.30;;;;;;4922518;29;20180;-88
2023/08/07 06:11:29;;;;;;;1.30;1.20;;;15.20;97.30;;;;;;4920226;29;20208;-87
2023/08/07 06:13:54;;;;;;;1.10;1.00;;;15.10;97.30;;;;;;4916922;29;20432;-88
2023/08/07 06:16:20;;;;;;;1.00;0.90;;;15.20;97.30;;;;;;4920215;29;20192;-87
2023/08/07 06:18:45;;;;;;;1.30;1.20;;;15.10;97.30;;;;;;4935571;29;20275;-88
2023/08/07 06:21:11;;;;;;;1.17;1.07;;;15.10;97.30;;;;;;4923193;29;20216;-87
2023/08/07 06:23:37;;;;;;;1.20;1.10;;;15.10;97.30;;;;;;4924341;29;20429;-87
2023/08/07 06:26:04;;;;;;;2.20;1.33;;;15.10;97.30;;;;;;4924730;29;20191;-85
2023/08/07 06:28:34;;;;;;;1.10;1.00;;;15.10;97.30;;;;;;4930229;29;20657;-87
2023/08/07 06:31:02;;;;;;;1.53;1.43;;;15.20;97.30;;;;;;4930866;29;20458;-87
2023/08/07 06:33:27;;;;;;;1.83;1.73;;;15.20;97.30;;;;;;4917491;29;20432;-86
2023/08/07 06:35:53;;;;;;;1.73;1.63;;;15.20;97.30;;;;;;4924836;29;20447;-87
2023/08/07 06:38:18;;;;;;;1.60;1.50;;;15.20;97.30;;;;;;4921423;29;20602;-87
2023/08/07 06:40:45;;;;;;;1.40;1.10;;;15.20;97.30;;;;;;4917864;29;20212;-87
2023/08/07 06:43:10;;;;;;;1.00;0.90;;;15.20;97.30;;;;;;4921257;29;20184;-88
2023/08/07 06:45:36;;;;;;;1.20;1.10;;;15.20;97.30;;;;;;4914508;29;21067;-87
2023/08/07 06:48:04;;;;;;;0.90;0.80;;;15.20;97.30;;;;;;4915337;29;20643;-86
2023/08/07 06:50:29;;;;;;;1.20;1.10;;;15.30;97.30;;;;;;4915112;29;20218;-87
2023/08/07 06:52:55;;;;;;;0.90;0.80;;;15.30;97.30;;;;;;4916581;29;20935;-87
2023/08/07 06:55:21;;;;;;;1.10;1.00;;;15.30;97.30;;;;;;4916961;29;20188;-88
2023/08/07 06:57:47;;;;;;;1.00;0.90;;;15.40;97.30;;;;;;4917087;29;20211;-89
2023/08/07 07:00:16;;;;;;;1.00;0.90;;;15.40;97.30;;;;;;4916456;29;20184;-84
2023/08/07 07:02:41;;;;;;;1.07;0.97;;;15.50;97.30;;;;;;4920817;29;20220;-88
2023/08/07 07:05:07;;;;;;;1.13;1.10;;;15.60;97.30;;;;;;4916137;29;20469;-88
2023/08/07 07:07:32;;;;;;;1.20;1.10;;;15.60;97.30;;;;;;4916228;29;20237;-86
2023/08/07 07:10:00;;;;;;;0.90;0.90;;;15.70;97.30;;;;;;4916451;29;20678;-87
2023/08/07 07:12:26;;;;;;;2.00;1.47;;;15.90;97.30;;;;;;4921706;29;20200;-86
2023/08/07 07:14:52;;;;;;;1.53;1.43;;;15.90;97.30;;;;;;4916571;29;20420;-88
2023/08/07 07:17:17;;;;;;;1.10;1.00;;;16.00;97.30;;;;;;4915895;29;20480;-89
2023/08/07 07:19:43;;;;;;;1.00;0.90;;;16.10;97.30;;;;;;4915143;29;20184;-86
2023/08/07 07:22:08;;;;;;;1.40;1.30;;;16.20;97.30;;;;;;4915281;29;20629;-87
2023/08/07 07:24:34;;;;;;;0.90;0.80;;;16.30;97.30;;;;;;4915877;29;20387;-87
2023/08/07 07:27:01;;;;;;;1.10;1.00;;;16.30;97.30;;;;;;4914593;29;20193;-87
2023/08/07 07:29:27;;;;;;;1.00;0.90;;;16.30;97.30;;;;;;4915085;29;20196;-86
2023/08/07 07:31:55;;;;;;;0.90;0.80;;;16.40;97.30;;;;;;4915880;29;20796;-87
2023/08/07 07:34:21;;;;;;;1.10;1.00;;;16.40;97.30;;;;;;4914633;29;20177;-87
2023/08/07 07:36:47;;;;;;;1.10;1.00;;;16.50;97.30;;;;;;4915022;29;20523;-84
2023/08/07 07:39:15;;;;;;;1.10;1.00;;;16.50;97.30;;;;;;4917287;29;20516;-88
2023/08/07 07:41:41;;;;;;;1.00;0.90;;;16.60;97.30;;;;;;4932118;23;20340;-74
2023/08/07 07:44:06;;;;;;;1.20;1.13;;;16.60;97.30;;;;;;4930424;29;21007;-75
2023/08/07 07:46:32;;;;;;;1.67;1.23;;;16.60;97.30;;;;;;4931115;29;20188;-76
2023/08/07 07:48:58;;;;;;;1.30;1.20;;;16.70;97.30;;;;;;4931101;29;20252;-73
2023/08/07 07:51:24;;;;;;;2.00;1.23;;;16.80;97.30;;;;;;4920573;29;20301;-75
2023/08/07 07:53:50;;;;;;;1.00;0.90;;;16.90;97.30;;;;;;4912055;29;20509;-73
2023/08/07 07:56:15;;;;;;;1.27;1.17;;;16.90;97.30;;;;;;4911084;29;20176;-73
2023/08/07 07:58:41;;;;;;;1.43;1.33;;;16.90;97.30;;;;;;4910592;29;20219;-73
2023/08/07 08:01:08;;;;;;;1.83;1.00;;;16.90;97.30;;;;;;4918402;29;20808;-73
2023/08/07 08:03:33;;;;;;;0.90;0.80;;;16.90;97.30;;;;;;4919725;29;20187;-73
2023/08/07 08:05:59;;;;;;;1.27;1.10;;;16.80;97.30;;;;;;4920604;29;20424;-69
2023/08/07 08:08:26;;;;;;;1.00;0.90;;;16.80;97.30;;;;;;4910816;29;20194;-72
2023/08/07 08:10:51;;;;;;;1.00;0.90;;;16.80;97.30;;;;;;4910164;29;20205;-74
2023/08/07 08:13:17;;;;;;;1.10;1.00;;;16.90;97.30;;;;;;4919132;29;20412;-74
2023/08/07 08:15:44;;;;;;;0.93;0.83;;;16.90;97.30;;;;;;4912868;29;20188;-74
2023/08/07 08:18:11;;;;;;;1.00;0.90;;;16.90;97.30;;;;;;4912207;29;20456;-74
2023/08/07 08:20:37;;;;;;;1.00;0.90;;;16.90;97.30;;;;;;4912293;29;20907;-74
2023/08/07 08:23:03;;;;;;;0.90;0.80;;;17.00;97.30;;;;;;4911066;29;20480;-75
2023/08/07 08:25:28;;;;;;;1.00;0.90;;;17.00;97.30;;;;;;4917099;29;20415;-76
2023/08/07 08:27:54;;;;;;;0.90;0.80;;;17.10;97.30;;;;;;4908970;29;20244;-74
2023/08/07 08:30:20;;;;;;;0.77;0.70;;;17.10;97.30;;;;;;4911032;29;20741;-75
2023/08/07 08:32:46;;;;;;;1.03;0.93;;;17.10;97.30;;;;;;4909909;29;20720;-76
2023/08/07 08:35:11;;;;;;;0.90;0.80;;;17.10;97.30;;;;;;4914366;29;20420;-78
2023/08/07 08:37:37;;;;;;;0.77;0.73;;;17.10;97.30;;;;;;4918111;29;20651;-74
2023/08/07 08:40:03;;;;;;;1.10;1.00;;;17.00;97.30;;;;;;4913982;29;20248;-78
2023/08/07 08:42:29;;;;;;;1.00;0.90;;;17.10;97.30;;;;;;4912141;29;20844;-76
2023/08/07 08:44:56;;;;;;;1.10;1.00;;;17.00;97.30;;;;;;4915046;29;21119;-77
2023/08/07 08:47:22;;;;;;;0.90;0.80;;;17.00;97.30;;;;;;4915870;29;20184;-77
2023/08/07 08:50:02;;;;;;;1.47;1.37;;;16.90;97.30;;;;;;4913251;29;20424;-75
2023/08/07 08:52:34;;;;;;;1.03;0.93;;;16.80;97.30;;;;;;4910608;29;20436;-76
2023/08/07 08:55:01;;;;;;;0.90;0.80;;;16.80;97.30;;;;;;4911812;29;20511;-76
2023/08/07 08:57:28;;;;;;;2.23;2.03;;;16.90;97.30;;;;;;4909281;29;20782;-70
2023/08/07 08:59:59;;;;;;;0.90;0.80;;;16.90;97.30;;;;;;4910303;29;21067;-73
2023/08/07 09:02:26;;;;;;;1.00;0.90;;;16.90;97.30;;;;;;4910208;29;20480;-73
2023/08/07 09:04:51;;;;;;;1.00;0.90;;;16.80;97.30;;;;;;4910215;29;20487;-74
2023/08/07 09:07:20;;;;;;;0.90;0.80;;;16.80;97.30;;;;;;4911138;29;20452;-73
2023/08/07 09:09:48;;;;;;;1.07;0.97;;;16.70;97.30;;;;;;4912240;29;20181;-73
2023/08/07 09:12:20;;;;;;;1.00;0.90;;;16.60;97.30;;;;;;4914724;29;20932;-73
2023/08/07 09:14:49;;;;;;;1.00;0.90;;;16.50;97.30;;;;;;4914366;29;20905;-73
2023/08/07 09:17:15;;;;;;;0.90;0.80;;;16.40;97.30;;;;;;4914082;29;20515;-73
2023/08/07 09:19:42;;;;;;;1.10;1.00;;;16.30;97.30;;;;;;4915127;29;20741;-70
2023/08/07 09:22:08;;;;;;;1.33;1.20;;;16.20;97.30;;;;;;4914206;29;20444;-73
2023/08/07 09:24:34;;;;;;;1.10;1.00;;;16.20;97.30;;;;;;4913250;29;20613;-73
2023/08/07 09:27:00;;;;;;;1.00;0.90;;;16.20;97.30;;;;;;4914089;29;21047;-74
2023/08/07 09:29:27;;;;;;;1.00;0.90;;;16.30;97.30;;;;;;4915080;29;20193;-75
2023/08/07 09:31:54;;;;;;;0.90;0.80;;;16.30;97.30;;;;;;4915354;29;20445;-75
2023/08/07 09:34:20;;;;;;;1.00;0.90;;;16.20;97.30;;;;;;4915544;29;20973;-75
2023/08/07 09:36:46;;;;;;;1.40;1.30;;;16.30;97.30;;;;;;4919915;29;20468;-74
2023/08/07 09:39:12;;;;;;;5.23;1.20;;;16.30;97.30;;;;;;4915111;29;20985;-74
2023/08/07 09:41:37;;;;;;;1.10;1.00;;;16.20;97.30;;;;;;4913467;29;20216;-74
2023/08/07 09:44:13;;;;;;;0.83;0.77;;;16.30;97.30;;;;;;4913693;29;20652;-73
2023/08/07 09:46:43;;;;;;;1.00;0.90;;;16.30;97.30;;;;;;4914598;29;20188;-73
2023/08/07 09:49:08;;;;;;;1.10;1.00;;;16.40;97.30;;;;;;4914724;29;20432;-71
2023/08/07 09:51:42;;;;;;;0.97;0.87;;;16.50;97.30;;;;;;4912223;29;20456;-74
2023/08/07 09:54:07;;;;;;;1.23;1.13;;;16.60;97.30;;;;;;4914320;29;20184;-75
2023/08/07 09:56:34;;;;;;;1.60;1.50;;;16.70;97.30;;;;;;4910252;29;20436;-74
2023/08/07 09:59:00;;;;;;;1.27;1.00;;;16.70;97.30;;;;;;4912557;29;20199;-73
2023/08/07 10:01:25;;;;;;;1.00;0.90;;;16.70;97.30;;;;;;4914902;29;20444;-73
2023/08/07 10:03:52;;;;;;;1.23;1.13;;;16.60;97.30;;;;;;4915066;29;20188;-74
2023/08/07 10:06:19;;;;;;;1.00;0.90;;;16.60;97.30;;;;;;4915249;29;20641;-71
2023/08/07 10:08:45;;;;;;;1.17;1.10;;;16.60;97.30;;;;;;4913767;29;20635;-70
2023/08/07 10:11:11;;;;;;;2.00;1.30;;;16.60;97.30;;;;;;4915313;29;20541;-71
2023/08/07 10:13:38;;;;;;;1.20;1.10;;;16.40;97.30;;;;;;4914579;29;20472;-68
2023/08/07 10:16:04;;;;;;;0.97;0.87;;;16.30;97.30;;;;;;4912021;29;21073;-73
2023/08/07 10:18:30;;;;;;;1.00;0.90;;;16.30;97.30;;;;;;4914962;29;20472;-70
2023/08/07 10:20:59;;;;;;;0.90;0.80;;;16.20;97.30;;;;;;4913442;29;20964;-70
2023/08/07 10:23:24;;;;;;;1.13;1.03;;;16.00;97.30;;;;;;4913898;29;20208;-71
2023/08/07 10:25:52;;;;;;;1.07;0.97;;;16.00;97.30;;;;;;4919771;29;20521;-72
2023/08/07 10:28:19;;;;;;;1.40;1.30;;;16.00;97.30;;;;;;4920884;29;20193;-72
2023/08/07 10:30:45;;;;;;;2.40;2.20;;;16.10;97.30;;;;;;4910793;29;20460;-71
2023/08/07 10:33:13;;;;;;;1.07;0.97;;;16.10;97.30;;;;;;4914914;29;20424;-71
2023/08/07 10:35:50;;;;;;;1.00;0.90;;;16.30;97.30;;;;;;4918664;29;20543;-71
2023/08/07 10:38:19;;;;;;;1.10;1.00;;;16.40;97.30;;;;;;4914287;29;20468;-73
2023/08/07 10:41:10;;;;;;;1.00;0.90;;;16.50;97.30;;;;;;4910543;29;20468;-72
2023/08/07 10:43:40;;;;;;;1.10;1.00;;;16.60;97.30;;;;;;4911598;29;20992;-73
2023/08/07 10:46:09;;;;;;;1.23;1.00;;;16.60;97.30;;;;;;4904786;29;20956;-73
2023/08/07 10:48:46;;;;;;;0.90;0.80;;;16.80;97.30;;;;;;4907847;29;20546;-73
2023/08/07 10:51:19;;;;;;;1.00;0.90;;;16.90;97.30;;;;;;4905304;29;20444;-75
2023/08/07 10:53:50;;;;;;;0.83;0.77;;;17.00;97.30;;;;;;4911435;29;20440;-76
2023/08/07 10:56:20;;;;;;;1.20;1.10;;;17.10;97.30;;;;;;4912537;29;20428;-71
2023/08/07 10:58:52;;;;;;;1.10;1.00;;;17.10;97.30;;;;;;4912274;29;20575;-77
2023/08/07 11:01:26;;;;;;;1.00;0.90;;;17.20;97.30;;;;;;4911243;29;20444;-74
2023/08/07 11:04:02;;;;;;;0.90;0.80;;;17.10;97.30;;;;;;4912277;29;20435;-77
2023/08/07 11:06:32;;;;;;;1.00;0.90;;;17.00;97.30;;;;;;4909582;29;20808;-76
2023/08/07 11:08:59;;;;;;;0.90;0.80;;;17.00;97.30;;;;;;4893779;29;20930;-75
2023/08/07 11:11:26;;;;;;;0.90;0.80;;;16.90;97.30;;;;;;4910458;29;20513;-75
2023/08/07 11:13:52;;;;;;;0.97;0.87;;;16.80;97.30;;;;;;4912517;29;20436;-73
2023/08/07 11:16:20;;;;;;;1.37;1.37;;;16.80;97.30;;;;;;4910720;29;20942;-73
2023/08/07 11:18:47;;;;;;;0.90;0.80;;;16.70;97.30;;;;;;4911338;29;20478;-74
2023/08/07 11:21:13;;;;;;;1.00;0.97;;;16.70;97.30;;;;;;4910741;29;20949;-73
2023/08/07 11:23:39;;;;;;;0.90;0.80;;;16.70;97.30;;;;;;4909669;29;20459;-73
2023/08/07 11:26:05;;;;;;;0.93;0.83;;;16.70;97.30;;;;;;4910113;29;20354;-74
2023/08/07 11:28:31;;;;;;;0.83;0.73;;;16.90;97.30;;;;;;4910787;29;20719;-74
2023/08/07 11:30:57;;;;;;;1.27;0.93;;;17.00;97.30;;;;;;4910504;29;21008;-75
2023/08/07 11:33:27;;;;;;;0.90;0.80;;;17.10;97.30;;;;;;4910712;29;20455;-74
2023/08/07 11:35:54;;;;;;;1.43;1.33;;;17.20;97.30;;;;;;4911368;29;20932;-74
2023/08/07 11:38:40;;;;;;;1.20;1.10;;;17.40;97.30;;;;;;4893602;29;20492;-74
2023/08/07 11:41:07;;;;;;;0.90;0.80;;;17.60;97.30;;;;;;4909860;29;20468;-71
2023/08/07 11:43:36;;;;;;;1.10;1.00;;;17.60;97.30;;;;;;4910222;29;20425;-78
2023/08/07 11:46:05;;;;;;;1.03;0.93;;;17.70;97.30;;;;;;4911042;29;20435;-74
2023/08/07 11:48:35;;;;;;;1.03;0.93;;;17.80;97.30;;;;;;4895209;29;20440;-76
2023/08/07 11:51:01;;;;;;;0.90;0.80;;;18.00;97.30;;;;;;4911488;29;20815;-77
2023/08/07 11:53:32;;;;;;;0.90;0.80;;;18.00;97.30;;;;;;4911696;29;20541;-78
2023/08/07 11:56:00;;;;;;;1.20;1.10;;;17.90;97.30;;;;;;4910501;29;20433;-73
2023/08/07 11:58:27;;;;;;;0.90;0.80;;;17.90;97.30;;;;;;4910360;29;20480;-75
2023/08/07 12:00:53;;;;;;;1.00;0.93;;;17.90;97.30;;;;;;4911386;29;20535;-76
2023/08/07 12:03:31;;;;;;;0.90;0.80;;;17.90;97.30;;;;;;4912142;29;20424;-78
2023/08/07 12:05:58;;;;;;;1.03;0.93;;;17.90;97.30;;;;;;4910652;29;20506;-75
2023/08/07 12:08:24;;;;;;;1.00;0.90;;;17.80;97.30;;;;;;4910442;29;20894;-79
2023/08/07 12:10:56;;;;;;;0.90;0.90;;;17.70;97.30;;;;;;4911386;29;20476;-75
2023/08/07 12:13:27;;;;;;;0.90;0.80;;;17.60;97.30;;;;;;4912324;29;20436;-79
2023/08/07 12:15:55;;;;;;;1.10;1.00;;;17.40;97.30;;;;;;4910586;29;20919;-69
2023/08/07 12:18:22;;;;;;;1.00;0.90;;;17.30;97.30;;;;;;4912266;29;20496;-74
2023/08/07 12:20:50;;;;;;;1.10;1.00;;;17.10;97.30;;;;;;4910248;29;20547;-74
2023/08/07 12:23:16;;;;;;;1.00;0.90;;;17.10;97.30;;;;;;4912261;29;20433;-73
2023/08/07 12:25:42;;;;;;;2.07;1.33;;;17.10;97.30;;;;;;4911446;29;20439;-74
2023/08/07 12:28:08;;;;;;;1.03;0.93;;;17.10;97.30;;;;;;4909789;29;20467;-72
2023/08/07 12:30:34;;;;;;;1.00;0.90;;;17.20;97.30;;;;;;4906460;29;20973;-69
2023/08/07 12:33:00;;;;;;;0.90;0.80;;;17.20;97.30;;;;;;4907754;29;20729;-74
2023/08/07 12:35:26;;;;;;;1.00;0.90;;;17.20;97.30;;;;;;4909675;29;20531;-75
2023/08/07 12:37:51;;;;;;;1.30;1.20;;;17.20;97.30;;;;;;4908781;29;20408;-72
2023/08/07 12:40:20;;;;;;;1.77;1.67;;;17.20;97.30;;;;;;4909304;29;20212;-70
2023/08/07 12:42:46;;;;;;;1.00;1.00;;;17.10;97.30;;;;;;4910545;29;20272;-71
2023/08/07 12:45:12;;;;;;;1.50;1.00;;;17.00;97.30;;;;;;4909985;29;20929;-69
2023/08/07 12:47:37;;;;;;;1.37;1.27;;;16.90;97.30;;;;;;4912963;29;20207;-70
2023/08/07 12:50:04;;;;;;;1.07;0.97;;;16.80;97.30;;;;;;4915215;29;20656;-75
2023/08/07 12:52:29;;;;;;;1.33;1.33;;;16.70;97.30;;;;;;4913882;29;20185;-69
2023/08/07 12:54:55;;;;;;;1.00;0.90;;;16.60;97.30;;;;;;4913042;29;20446;-70
2023/08/07 12:57:20;;;;;;;1.13;1.10;;;16.40;97.30;;;;;;4915287;29;20665;-71
2023/08/07 12:59:46;;;;;;;1.20;1.10;;;16.30;97.30;;;;;;4912240;29;20185;-71
2023/08/07 13:02:12;;;;;;;0.90;0.80;;;16.20;97.30;;;;;;4911363;29;20215;-71
2023/08/07 13:04:37;;;;;;;1.23;1.10;;;16.20;97.30;;;;;;4909020;29;20186;-72
2023/08/07 13:07:03;;;;;;;1.00;0.90;;;16.10;97.30;;;;;;4906531;29;20196;-69
2023/08/07 13:09:30;;;;;;;0.90;0.80;;;16.10;97.30;;;;;;4907535;29;20177;-71
2023/08/07 13:11:56;;;;;;;0.97;0.87;;;16.20;97.30;;;;;;4911337;29;20204;-71
2023/08/07 13:14:21;;;;;;;1.00;0.90;;;16.30;97.30;;;;;;4910325;29;20430;-73
2023/08/07 13:16:49;;;;;;;0.90;0.80;;;16.50;97.30;;;;;;4907562;29;20595;-74
2023/08/07 13:19:14;;;;;;;0.90;0.80;;;16.80;97.30;;;;;;4907350;29;20215;-74
2023/08/07 13:21:40;;;;;;;1.20;1.10;;;16.80;97.30;;;;;;4912663;29;20975;-74
2023/08/07 13:24:06;;;;;;;0.93;0.83;;;16.90;97.30;;;;;;4912110;29;20342;-73
2023/08/07 13:26:31;;;;;;;1.13;1.13;;;16.80;97.30;;;;;;4913013;29;20181;-73
2023/08/07 13:28:57;;;;;;;0.90;0.80;;;16.80;97.30;;;;;;4913930;29;20189;-74
2023/08/07 13:31:22;;;;;;;1.00;0.90;;;16.70;97.30;;;;;;4909265;29;20701;-72
2023/08/07 13:33:48;;;;;;;1.00;0.90;;;16.60;97.30;;;;;;4906704;29;20547;-73
2023/08/07 13:36:13;;;;;;;0.90;0.80;;;16.50;97.30;;;;;;4909422;29;20643;-72
2023/08/07 13:38:39;;;;;;;1.20;1.13;;;16.50;97.30;;;;;;4905139;29;20591;-72
2023/08/07 13:41:04;;;;;;;1.10;1.00;;;16.40;97.30;;;;;;4905702;29;20615;-73
2023/08/07 13:43:30;;;;;;;0.97;0.87;;;16.30;97.30;;;;;;4901807;29;20229;-73
2023/08/07 13:45:56;;;;;;;0.93;0.90;;;16.30;97.30;;;;;;4911026;29;20180;-73
2023/08/07 13:48:22;;;;;;;1.00;0.90;;;16.30;97.30;;;;;;4911142;29;20548;-73
2023/08/07 13:50:47;;;;;;;0.90;0.80;;;16.30;97.30;;;;;;4909406;29;20231;-74
2023/08/07 13:53:13;;;;;;;1.00;0.90;;;16.30;97.30;;;;;;4909824;29;21083;-74
2023/08/07 13:55:39;;;;;;;1.13;1.03;;;16.30;97.30;;;;;;4910402;29;20176;-73
2023/08/07 13:58:05;;;;;;;1.53;1.10;;;16.20;97.30;;;;;;4910555;29;20204;-74
2023/08/07 14:00:30;;;;;;;0.70;0.70;;;16.20;97.30;;;;;;4911677;29;20205;-72
2023/08/07 14:02:56;;;;;;;0.90;0.80;;;16.20;97.30;;;;;;4909471;29;20499;-74
2023/08/07 14:05:21;;;;;;;0.90;0.80;;;16.20;97.30;;;;;;4910206;29;20192;-74
2023/08/07 14:07:47;;;;;;;0.90;0.80;;;16.20;97.30;;;;;;4911361;29;20188;-69
2023/08/07 14:10:13;;;;;;;1.10;1.00;;;16.30;97.30;;;;;;4902763;29;20180;-74
2023/08/07 14:12:38;;;;;;;1.17;1.17;;;16.40;97.30;;;;;;4899379;29;20196;-75
2023/08/07 14:15:04;;;;;;;0.90;0.80;;;16.50;97.30;;;;;;4903350;29;20193;-73
2023/08/07 14:17:30;;;;;;;0.90;0.80;;;16.50;97.30;;;;;;4895815;29;20292;-75
2023/08/07 14:19:55;;;;;;;1.00;0.90;;;16.40;97.30;;;;;;4904972;29;20745;-74
2023/08/07 14:22:21;;;;;;;0.90;0.80;;;16.40;97.30;;;;;;4905438;29;20231;-71
2023/08/07 14:24:50;;;;;;;1.00;0.90;;;16.30;97.30;;;;;;4906016;29;20184;-70
2023/08/07 14:27:15;;;;;;;1.00;0.90;;;16.20;97.30;;;;;;4906292;29;20749;-68
2023/08/07 14:29:41;;;;;;;1.37;1.10;;;16.00;97.30;;;;;;4905919;29;20417;-69
2023/08/07 14:32:06;;;;;;;0.93;0.83;;;15.90;97.30;;;;;;4906980;29;20624;-69
2023/08/07 14:34:32;;;;;;;1.03;0.93;;;15.90;97.30;;;;;;4902056;29;20203;-69
2023/08/07 14:36:57;;;;;;;1.10;1.00;;;15.70;97.30;;;;;;4910106;29;20208;-72
2023/08/07 14:39:24;;;;;;;1.00;0.90;;;15.60;97.30;;;;;;4902789;29;20200;-71
2023/08/07 14:41:51;;;;;;;1.00;0.90;;;15.60;97.30;;;;;;4910288;29;20993;-72
2023/08/07 14:44:17;;;;;;;0.90;0.80;;;15.60;97.30;;;;;;4909060;29;20677;-71
2023/08/07 14:46:43;;;;;;;0.90;0.80;;;15.60;97.30;;;;;;4907376;29;20504;-72
2023/08/07 14:49:08;;;;;;;0.90;0.80;;;15.70;97.30;;;;;;4910106;29;20296;-71
2023/08/07 14:51:34;;;;;;;1.00;0.90;;;15.70;97.30;;;;;;4901924;29;20283;-71
2023/08/07 14:54:00;;;;;;;1.00;0.90;;;15.90;97.30;;;;;;4910758;29;20192;-71
2023/08/07 14:56:25;;;;;;;1.50;1.40;;;16.30;97.30;;;;;;4905279;29;20173;-71
2023/08/07 14:58:51;;;;;;;1.10;1.00;;;16.70;97.30;;;;;;4911539;29;20787;-70
2023/08/07 15:01:16;;;;;;;0.90;0.80;;;16.90;97.30;;;;;;4911570;29;20676;-70
2023/08/07 15:03:42;;;;;;;0.90;0.80;;;17.00;97.30;;;;;;4909565;29;20265;-71
2023/08/07 15:06:08;;;;;;;1.00;0.90;;;17.00;97.30;;;;;;4907358;29;20177;-70
2023/08/07 15:08:33;;;;;;;2.10;1.00;;;17.00;97.30;;;;;;4905623;29;20424;-73
2023/08/07 15:10:59;;;;;;;1.10;1.00;;;16.90;97.30;;;;;;4905407;29;20209;-72
2023/08/07 15:13:25;;;;;;;0.90;0.80;;;16.90;97.30;;;;;;4908468;29;20199;-72
2023/08/07 15:15:50;;;;;;;0.90;0.80;;;17.00;97.30;;;;;;4910235;29;20185;-73
2023/08/07 15:18:16;;;;;;;4.10;3.27;;;17.10;97.30;;;;;;4911024;29;20342;-73
2023/08/07 15:20:41;;;;;;;1.00;0.90;;;17.20;97.30;;;;;;4911143;29;20724;-74
2023/08/07 15:23:07;;;;;;;1.00;0.90;;;17.20;97.30;;;;;;4906817;29;20800;-74
2023/08/07 15:25:32;;;;;;;0.90;0.80;;;17.20;97.30;;;;;;4907460;29;20527;-73
2023/08/07 15:28:00;;;;;;;0.87;0.77;;;17.10;97.30;;;;;;4912964;29;20176;-73
2023/08/07 15:30:27;;;;;;;0.90;0.80;;;17.00;97.30;;;;;;4910709;29;20204;-73
2023/08/07 15:32:53;;;;;;;0.90;0.80;;;17.00;97.30;;;;;;4913234;29;20957;-73
2023/08/07 15:35:19;;;;;;;0.90;0.80;;;16.90;97.30;;;;;;4907498;29;20453;-75
2023/08/07 15:37:44;;;;;;;1.83;1.50;;;16.80;97.30;;;;;;4910285;29;20220;-75
2023/08/07 15:40:10;;;;;;;0.93;0.87;;;16.80;97.30;;;;;;4912194;29;20193;-73
2023/08/07 15:42:35;;;;;;;1.13;1.00;;;16.70;97.30;;;;;;4909415;29;20216;-72
2023/08/07 15:45:04;;;;;;;0.90;0.80;;;16.70;97.30;;;;;;4909651;29;20173;-71
2023/08/07 15:47:30;;;;;;;1.23;1.13;;;16.60;97.30;;;;;;4912999;29;20239;-76
2023/08/07 15:49:55;;;;;;;0.87;0.77;;;16.70;97.30;;;;;;4911433;29;20972;-77
2023/08/07 15:52:21;;;;;;;4.03;1.90;;;16.70;97.30;;;;;;4911544;29;20268;-75
2023/08/07 15:54:47;;;;;;;1.10;1.10;;;16.60;97.30;;;;;;4909987;29;20436;-74
2023/08/07 15:57:13;;;;;;;1.00;0.90;;;16.60;97.30;;;;;;4911372;29;20275;-73
2023/08/07 15:59:40;;;;;;;19.07;1.70;;;16.70;97.30;;;;;;4912396;29;20181;-75
2023/08/07 16:02:07;;;;;;;1.10;1.00;;;16.90;97.30;;;;;;4893087;29;20941;-72
2023/08/07 16:04:33;;;;;;;0.90;0.80;;;17.20;97.30;;;;;;4909182;29;20459;-75
2023/08/07 16:06:58;;;;;;;1.07;0.97;;;17.20;97.30;;;;;;4908546;29;20876;-77
2023/08/07 16:09:24;;;;;;;0.83;0.80;;;17.30;97.30;;;;;;4904263;29;20188;-76
2023/08/07 16:11:50;;;;;;;0.90;0.80;;;17.30;97.30;;;;;;4902653;29;20204;-76
2023/08/07 16:14:17;;;;;;;1.00;0.90;;;17.30;97.30;;;;;;4907591;29;20656;-78
2023/08/07 16:16:43;;;;;;;1.07;0.97;;;17.30;97.30;;;;;;4908623;29;20176;-77
2023/08/07 16:19:11;;;;;;;0.90;0.80;;;17.40;97.30;;;;;;4894937;29;20443;-81
2023/08/07 16:21:37;;;;;;;3.33;1.67;;;17.40;97.30;;;;;;4914522;29;20196;-78
2023/08/07 16:24:03;;;;;;;0.97;0.87;;;17.30;97.30;;;;;;4916336;29;20460;-75
2023/08/07 16:26:29;;;;;;;0.90;0.80;;;17.20;97.30;;;;;;4916764;29;20227;-73
2023/08/07 16:28:54;;;;;;;3.23;1.50;;;17.10;96.00;;;;;;4916021;29;20507;-81
2023/08/07 16:31:20;;;;;;;2.50;2.30;;;17.00;96.80;;;;;;4916339;29;20342;-75
2023/08/07 16:33:45;;;;;;;1.13;1.00;;;17.00;96.30;;;;;;4916250;29;20180;-76
2023/08/07 16:36:11;;;;;;;1.40;1.30;;;16.90;97.30;;;;;;4916104;29;20620;-75
2023/08/07 16:38:36;;;;;;;0.93;0.87;;;16.80;96.10;;;;;;4910940;29;20796;-76
2023/08/07 16:41:02;;;;;;;3.73;1.00;;;16.80;95.50;;;;;;4907709;29;20308;-75
2023/08/07 16:43:27;;;;;;;1.53;1.50;;;16.80;94.90;;;;;;4911196;29;20599;-74
2023/08/07 16:45:53;;;;;;;0.80;0.80;;;16.80;95.70;;;;;;4917189;29;20562;-74
2023/08/07 16:48:18;;;;;;;1.03;0.93;;;16.70;95.10;;;;;;4917209;29;20275;-75
2023/08/07 16:50:44;;;;;;;0.90;0.80;;;16.80;95.30;;;;;;4912142;29;20299;-78